createdAt,value
2017-05-03T00:00:36.993Z,22.33
2017-05-03T00:01:17.587Z,22.52
2017-05-03T00:01:58.124Z,22.61
2017-05-03T00:02:38.656Z,22.52
2017-05-03T00:03:19.173Z,22.42
2017-05-03T00:03:59.684Z,22.42
2017-05-03T00:04:40.218Z,22.42
2017-05-03T00:05:20.734Z,22.8
2017-05-03T00:06:01.264Z,22.52
2017-05-03T00:06:41.782Z,22.71
2017-05-03T00:07:22.286Z,22.8
2017-05-03T00:08:02.814Z,22.9
2017-05-03T00:08:43.340Z,23
2017-05-03T00:09:23.867Z,23.19
2017-05-03T00:10:04.405Z,23
2017-05-03T00:10:44.928Z,23
2017-05-03T00:11:25.445Z,23
2017-05-03T00:12:05.949Z,23
2017-05-03T00:12:46.478Z,23.19
2017-05-03T00:13:27.006Z,23.47
2017-05-03T00:14:07.527Z,23.47
2017-05-03T00:14:48.060Z,23.09
2017-05-03T00:15:28.590Z,23.38
2017-05-03T00:16:09.101Z,23.09
2017-05-03T00:16:49.636Z,23.09
2017-05-03T00:17:30.156Z,23.38
2017-05-03T00:18:10.683Z,23.38
2017-05-03T00:18:51.197Z,23.38
2017-05-03T00:19:31.721Z,23.47
2017-05-03T00:20:12.256Z,23.19
2017-05-03T00:20:52.790Z,23.19
2017-05-03T00:21:33.301Z,23.28
2017-05-03T00:22:13.838Z,23.47
2017-05-03T00:22:54.369Z,23.28
2017-05-03T00:23:34.897Z,23.38
2017-05-03T00:24:15.409Z,23.28
2017-05-03T00:24:55.947Z,23.47
2017-05-03T00:25:36.483Z,23.38
2017-05-03T00:26:17.006Z,23.47
2017-05-03T00:26:57.524Z,23.47
2017-05-03T00:27:38.049Z,23.47
2017-05-03T00:28:18.578Z,23.66
2017-05-03T00:28:59.095Z,23.75
2017-05-03T00:29:39.617Z,23.75
2017-05-03T00:30:20.148Z,23.85
2017-05-03T00:31:00.689Z,23.57
2017-05-03T00:31:41.205Z,23.57
2017-05-03T00:32:21.730Z,23.47
2017-05-03T00:33:02.252Z,23.85
2017-05-03T00:33:42.759Z,23.85
2017-05-03T00:34:23.279Z,23.94
2017-05-03T00:35:03.820Z,23.94
2017-05-03T00:35:44.321Z,23.94
2017-05-03T00:36:24.810Z,23.94
2017-05-03T00:37:05.313Z,23.85
2017-05-03T00:37:45.813Z,23.94
2017-05-03T00:38:26.336Z,23.94
2017-05-03T00:39:06.862Z,23.94
2017-05-03T00:39:47.397Z,23.94
2017-05-03T00:40:27.906Z,23.86
2017-05-03T00:41:08.440Z,23.94
2017-05-03T00:41:48.943Z,23.94
2017-05-03T00:42:29.457Z,23.94
2017-05-03T00:43:09.991Z,23.94
2017-05-03T00:43:50.508Z,23.94
2017-05-03T00:44:31.024Z,24.33
2017-05-03T00:45:11.551Z,24.23
2017-05-03T00:45:52.079Z,24.33
2017-05-03T00:46:32.616Z,24.33
2017-05-03T00:47:13.148Z,24.33
2017-05-03T00:47:53.676Z,24.33
2017-05-03T00:48:34.201Z,24.34
2017-05-03T00:49:14.750Z,24.33
2017-05-03T00:49:55.289Z,24.23
2017-05-03T00:50:35.813Z,24.24
2017-05-03T00:51:16.327Z,24.23
2017-05-03T00:51:56.857Z,24.23
2017-05-03T00:52:37.371Z,24.24
2017-05-03T00:53:17.888Z,24.23
2017-05-03T00:53:58.399Z,24.23
2017-05-03T00:54:38.922Z,24.33
2017-05-03T00:55:19.453Z,24.13
2017-05-03T00:55:59.978Z,24.23
2017-05-03T00:56:40.490Z,24.24
2017-05-03T00:57:21.023Z,24.24
2017-05-03T00:58:01.537Z,24.24
2017-05-03T00:58:42.050Z,24.34
2017-05-03T00:59:22.595Z,24.24
2017-05-03T01:00:03.110Z,24.33
2017-05-03T01:00:43.615Z,24.33
2017-05-03T01:01:24.144Z,24.42
2017-05-03T01:02:04.672Z,24.13
2017-05-03T01:02:45.190Z,24.23
2017-05-03T01:03:25.731Z,23.94
2017-05-03T01:04:06.205Z,24.23
2017-05-03T01:04:46.717Z,24.15
2017-05-03T01:05:27.290Z,24.34
2017-05-03T01:06:07.810Z,24.34
2017-05-03T01:06:48.348Z,24.34
2017-05-03T01:07:28.888Z,24.34
2017-05-03T01:08:09.425Z,24.34
2017-05-03T01:08:49.941Z,24.24
2017-05-03T01:09:30.469Z,24.42
2017-05-03T01:10:10.960Z,24.15
2017-05-03T01:10:51.487Z,24.15
2017-05-03T01:11:32.005Z,24.24
2017-05-03T01:12:12.538Z,24.23
2017-05-03T01:12:53.073Z,24.34
2017-05-03T01:13:33.604Z,24.34
2017-05-03T01:14:14.138Z,24.24
2017-05-03T01:14:54.639Z,24.13
2017-05-03T01:15:35.159Z,24.15
2017-05-03T01:16:15.673Z,24.13
2017-05-03T01:16:56.198Z,24.13
2017-05-03T01:17:36.729Z,24.13
2017-05-03T01:18:17.296Z,24.23
2017-05-03T01:18:57.744Z,24.23
2017-05-03T01:19:38.258Z,24.13
2017-05-03T01:20:18.792Z,24.13
2017-05-03T01:20:59.314Z,24.15
2017-05-03T01:21:39.842Z,24.15
2017-05-03T01:22:20.349Z,24.05
2017-05-03T01:23:00.869Z,24.13
2017-05-03T01:23:41.386Z,23.77
2017-05-03T01:24:21.913Z,24.24
2017-05-03T01:25:02.443Z,24.15
2017-05-03T01:25:42.950Z,24.23
2017-05-03T01:26:23.467Z,24.15
2017-05-03T01:27:03.978Z,24.13
2017-05-03T01:27:44.498Z,24.34
2017-05-03T01:28:25.013Z,24.33
2017-05-03T01:29:05.558Z,24.24
2017-05-03T01:29:46.091Z,24.43
2017-05-03T01:30:26.607Z,24.24
2017-05-03T01:31:07.147Z,24.23
2017-05-03T01:31:47.657Z,24.34
2017-05-03T01:32:30.690Z,24.33
2017-05-03T01:33:11.200Z,24.33
2017-05-03T01:33:51.737Z,24.24
2017-05-03T01:34:32.254Z,24.24
2017-05-03T01:35:12.754Z,24.33
2017-05-03T01:35:53.266Z,24.33
2017-05-03T01:36:33.789Z,24.13
2017-05-03T01:37:14.312Z,23.94
2017-05-03T01:37:54.877Z,24.13
2017-05-03T01:38:35.360Z,23.94
2017-05-03T01:39:15.873Z,24.04
2017-05-03T01:39:56.404Z,23.94
2017-05-03T01:40:36.929Z,23.85
2017-05-03T01:41:17.458Z,24.13
2017-05-03T01:41:57.962Z,23.94
2017-05-03T01:42:38.480Z,24.04
2017-05-03T01:43:19.006Z,23.85
2017-05-03T01:43:59.501Z,23.86
2017-05-03T01:44:40.020Z,23.94
2017-05-03T01:45:20.553Z,23.85
2017-05-03T01:46:01.104Z,23.94
2017-05-03T01:46:41.642Z,24.05
2017-05-03T01:47:22.178Z,23.77
2017-05-03T01:48:02.723Z,23.94
2017-05-03T01:48:43.261Z,23.85
2017-05-03T01:49:23.830Z,23.94
2017-05-03T01:50:04.338Z,23.94
2017-05-03T01:50:44.861Z,23.75
2017-05-03T01:51:25.382Z,23.75
2017-05-03T01:52:05.912Z,23.47
2017-05-03T01:52:46.438Z,23.77
2017-05-03T01:53:26.962Z,23.66
2017-05-03T01:54:07.478Z,23.66
2017-05-03T01:54:48.014Z,23.77
2017-05-03T01:55:28.548Z,23.48
2017-05-03T01:56:09.086Z,23.57
2017-05-03T01:56:49.600Z,23.38
2017-05-03T01:57:30.117Z,23.48
2017-05-03T01:58:10.638Z,23.39
2017-05-03T01:58:51.172Z,23.19
2017-05-03T01:59:31.707Z,23.28
2017-05-03T02:00:12.242Z,23.28
2017-05-03T02:00:52.769Z,23.09
2017-05-03T02:01:33.308Z,23.28
2017-05-03T02:02:13.856Z,23
2017-05-03T02:02:54.367Z,23.38
2017-05-03T02:03:34.885Z,23.09
2017-05-03T02:04:15.418Z,23
2017-05-03T02:04:55.940Z,23
2017-05-03T02:05:36.477Z,22.8
2017-05-03T02:06:17.003Z,22.71
2017-05-03T02:06:57.517Z,22.61
2017-05-03T02:07:38.079Z,22.33
2017-05-03T02:08:18.621Z,22.42
2017-05-03T02:08:59.148Z,22.52
2017-05-03T02:09:39.655Z,22.42
2017-05-03T02:10:20.190Z,22.61
2017-05-03T02:11:00.722Z,22.61
2017-05-03T02:11:41.247Z,22.71
2017-05-03T02:12:21.768Z,22.61
2017-05-03T02:13:02.286Z,22.61
2017-05-03T02:13:42.800Z,22.61
2017-05-03T02:14:23.338Z,22.52
2017-05-03T02:15:03.867Z,22.42
2017-05-03T02:15:44.387Z,22.42
2017-05-03T02:16:24.910Z,22.52
2017-05-03T02:17:05.443Z,22.52
2017-05-03T02:17:45.950Z,22.42
2017-05-03T02:18:26.455Z,22.42
2017-05-03T02:19:06.967Z,22.33
2017-05-03T02:19:47.500Z,22.24
2017-05-03T02:20:28.018Z,22.24
2017-05-03T02:21:08.554Z,22.42
2017-05-03T02:21:49.084Z,22.61
2017-05-03T02:22:29.597Z,22.61
2017-05-03T02:23:10.122Z,22.24
2017-05-03T02:23:50.651Z,22.61
2017-05-03T02:24:31.192Z,22.42
2017-05-03T02:25:11.730Z,22.9
2017-05-03T02:25:52.265Z,22.71
2017-05-03T02:26:32.799Z,22.8
2017-05-03T02:27:13.324Z,22.9
2017-05-03T02:27:53.847Z,22.9
2017-05-03T02:28:34.369Z,23.09
2017-05-03T02:29:14.899Z,23
2017-05-03T02:29:55.432Z,23.09
2017-05-03T02:30:35.956Z,23.09
2017-05-03T02:31:16.456Z,22.9
2017-05-03T02:31:57.005Z,23.57
2017-05-03T02:32:37.502Z,23.57
2017-05-03T02:33:18.030Z,23.09
2017-05-03T02:33:58.552Z,23.28
2017-05-03T02:34:39.080Z,23.09
2017-05-03T02:35:19.611Z,23.19
2017-05-03T02:36:00.152Z,23.19
2017-05-03T02:36:40.671Z,23.19
2017-05-03T02:37:21.202Z,23.19
2017-05-03T02:38:01.700Z,23.38
2017-05-03T02:38:42.216Z,23.19
2017-05-03T02:39:22.769Z,23.19
2017-05-03T02:40:03.257Z,23.19
2017-05-03T02:40:43.768Z,23.38
2017-05-03T02:41:24.284Z,23.28
2017-05-03T02:42:04.816Z,23.19
2017-05-03T02:42:45.342Z,23.28
2017-05-03T02:43:25.859Z,23.09
2017-05-03T02:44:06.381Z,23.19
2017-05-03T02:44:46.906Z,23.38
2017-05-03T02:45:27.430Z,23
2017-05-03T02:46:07.952Z,23.09
2017-05-03T02:46:48.484Z,23.09
2017-05-03T02:47:29.001Z,23.19
2017-05-03T02:48:09.530Z,23.09
2017-05-03T02:48:50.050Z,23.28
2017-05-03T02:49:30.582Z,23.09
2017-05-03T02:50:11.089Z,23.09
2017-05-03T02:50:51.633Z,23.19
2017-05-03T02:51:32.145Z,23.19
2017-05-03T02:52:12.650Z,23.19
2017-05-03T02:52:53.167Z,23.19
2017-05-03T02:53:33.682Z,23.19
2017-05-03T02:54:14.201Z,23.09
2017-05-03T02:54:54.719Z,23.19
2017-05-03T02:55:35.233Z,23.09
2017-05-03T02:56:15.765Z,23.09
2017-05-03T02:56:56.299Z,23.38
2017-05-03T02:57:36.838Z,23.38
2017-05-03T02:58:17.401Z,23.28
2017-05-03T02:58:57.885Z,23
2017-05-03T02:59:38.416Z,23.57
2017-05-03T03:00:18.937Z,23.09
2017-05-03T03:00:59.459Z,23.28
2017-05-03T03:01:40.014Z,23.38
2017-05-03T03:02:20.522Z,23.28
2017-05-03T03:03:01.049Z,23.09
2017-05-03T03:03:41.555Z,23.19
2017-05-03T03:04:22.059Z,23.28
2017-05-03T03:05:02.627Z,23.19
2017-05-03T03:05:43.115Z,23.19
2017-05-03T03:06:23.642Z,23.28
2017-05-03T03:07:04.137Z,23.19
2017-05-03T03:07:44.655Z,23.38
2017-05-03T03:08:25.176Z,23.19
2017-05-03T03:09:05.704Z,23.19
2017-05-03T03:09:46.210Z,23.09
2017-05-03T03:10:26.740Z,23.09
2017-05-03T03:11:07.240Z,23.28
2017-05-03T03:11:47.761Z,23.09
2017-05-03T03:12:28.287Z,23.09
2017-05-03T03:13:08.797Z,23.28
2017-05-03T03:13:49.311Z,23.19
2017-05-03T03:14:29.858Z,23.28
2017-05-03T03:15:10.305Z,23.09
2017-05-03T03:15:50.802Z,23.09
2017-05-03T03:16:31.309Z,23.09
2017-05-03T03:17:11.828Z,23.09
2017-05-03T03:17:52.341Z,23.19
2017-05-03T03:18:32.850Z,23.09
2017-05-03T03:19:13.346Z,23
2017-05-03T03:19:53.862Z,23.09
2017-05-03T03:20:34.366Z,23.19
2017-05-03T03:21:14.887Z,23.19
2017-05-03T03:21:55.369Z,23.38
2017-05-03T03:22:35.894Z,23.38
2017-05-03T03:23:16.409Z,23.28
2017-05-03T03:23:56.916Z,23.47
2017-05-03T03:24:37.439Z,23.19
2017-05-03T03:25:17.962Z,23.38
2017-05-03T03:25:58.464Z,23.38
2017-05-03T03:26:38.987Z,23.28
2017-05-03T03:27:19.493Z,23.28
2017-05-03T03:28:00.022Z,23.28
2017-05-03T03:28:40.568Z,23.28
2017-05-03T03:29:21.078Z,23.28
2017-05-03T03:30:01.598Z,23.28
2017-05-03T03:30:42.118Z,23.38
2017-05-03T03:31:22.644Z,23.28
2017-05-03T03:32:03.146Z,23.38
2017-05-03T03:32:43.743Z,23.47
2017-05-03T03:33:24.261Z,23.57
2017-05-03T03:34:04.757Z,23.57
2017-05-03T03:34:45.288Z,23.66
2017-05-03T03:35:25.840Z,23.75
2017-05-03T03:36:06.358Z,23.66
2017-05-03T03:36:46.880Z,23.94
2017-05-03T03:37:27.410Z,23.94
2017-05-03T03:38:07.948Z,23.94
2017-05-03T03:38:48.473Z,23.75
2017-05-03T03:39:28.999Z,24.04
2017-05-03T03:40:09.515Z,24.04
2017-05-03T03:40:50.012Z,24.33
2017-05-03T03:41:30.588Z,24.33
2017-05-03T03:42:11.063Z,24.33
2017-05-03T03:42:51.545Z,24.13
2017-05-03T03:43:32.052Z,24.23
2017-05-03T03:44:12.557Z,24.04
2017-05-03T03:44:53.121Z,24.13
2017-05-03T03:45:33.620Z,24.13
2017-05-03T03:46:14.164Z,24.13
2017-05-03T03:46:54.675Z,24.52
2017-05-03T03:47:35.194Z,24.13
2017-05-03T03:48:15.701Z,24.33
2017-05-03T03:48:56.227Z,24.33
2017-05-03T03:49:36.756Z,24.33
2017-05-03T03:50:17.252Z,24.33
2017-05-03T03:50:57.812Z,24.33
2017-05-03T03:51:38.419Z,24.33
2017-05-03T03:52:18.970Z,24.42
2017-05-03T03:52:59.521Z,24.42
2017-05-03T03:53:40.035Z,24.33
2017-05-03T03:54:20.561Z,24.42
2017-05-03T03:55:01.073Z,24.33
2017-05-03T03:55:41.581Z,24.33
2017-05-03T03:56:22.094Z,24.33
2017-05-03T03:57:02.605Z,24.33
2017-05-03T03:57:43.121Z,24.52
2017-05-03T03:58:23.699Z,24.52
2017-05-03T03:59:04.219Z,24.52
2017-05-03T03:59:44.756Z,24.8
2017-05-03T04:00:25.295Z,24.61
2017-05-03T04:01:05.869Z,24.61
2017-05-03T04:01:46.393Z,24.61
2017-05-03T04:02:26.912Z,24.61
2017-05-03T04:03:07.461Z,24.61
2017-05-03T04:03:47.989Z,24.8
2017-05-03T04:04:28.672Z,24.8
2017-05-03T04:05:09.129Z,24.8
2017-05-03T04:05:49.583Z,24.71
2017-05-03T04:06:30.119Z,24.9
2017-05-03T04:07:10.584Z,24.99
2017-05-03T04:07:51.087Z,24.8
2017-05-03T04:08:31.592Z,24.9
2017-05-03T04:09:12.062Z,24.71
2017-05-03T04:09:52.570Z,24.8
2017-05-03T04:10:33.076Z,24.8
2017-05-03T04:11:13.570Z,24.9
2017-05-03T04:11:54.076Z,24.9
2017-05-03T04:12:34.609Z,24.71
2017-05-03T04:13:15.104Z,24.8
2017-05-03T04:13:55.618Z,24.8
2017-05-03T04:14:36.122Z,24.99
2017-05-03T04:15:16.636Z,24.99
2017-05-03T04:15:57.134Z,25.09
2017-05-03T04:16:37.651Z,25.09
2017-05-03T04:17:18.183Z,25.09
2017-05-03T04:17:58.700Z,25.09
2017-05-03T04:18:39.224Z,25.09
2017-05-03T04:19:19.754Z,25.27
2017-05-03T04:20:00.273Z,25.09
2017-05-03T04:20:40.809Z,25.09
2017-05-03T04:21:21.305Z,25.09
2017-05-03T04:22:01.833Z,25.09
2017-05-03T04:22:42.357Z,25.18
2017-05-03T04:23:22.878Z,25.09
2017-05-03T04:24:03.402Z,25.27
2017-05-03T04:24:43.919Z,25.18
2017-05-03T04:25:24.461Z,25.09
2017-05-03T04:26:04.994Z,25.09
2017-05-03T04:26:45.485Z,25.37
2017-05-03T04:27:26.032Z,25.37
2017-05-03T04:28:06.568Z,25.27
2017-05-03T04:28:47.105Z,25.37
2017-05-03T04:29:27.601Z,25.27
2017-05-03T04:30:08.105Z,25.27
2017-05-03T04:30:48.592Z,25.37
2017-05-03T04:31:29.114Z,25.27
2017-05-03T04:32:09.681Z,25.27
2017-05-03T04:32:50.177Z,25.27
2017-05-03T04:33:30.664Z,25.18
2017-05-03T04:34:11.171Z,25.27
2017-05-03T04:34:51.683Z,25.27
2017-05-03T04:35:32.232Z,25.18
2017-05-03T04:36:12.726Z,25.27
2017-05-03T04:36:53.216Z,25.37
2017-05-03T04:37:33.778Z,25.27
2017-05-03T04:38:14.285Z,25.27
2017-05-03T04:38:54.779Z,25.27
2017-05-03T04:39:35.308Z,25.27
2017-05-03T04:40:15.808Z,25.37
2017-05-03T04:40:56.326Z,25.27
2017-05-03T04:41:36.855Z,25.18
2017-05-03T04:42:17.344Z,25.27
2017-05-03T04:42:57.865Z,25.27
2017-05-03T04:43:38.392Z,25.27
2017-05-03T04:44:18.879Z,25.37
2017-05-03T04:44:59.412Z,25.27
2017-05-03T04:45:39.908Z,25.27
2017-05-03T04:46:20.421Z,25.27
2017-05-03T04:47:00.913Z,25.37
2017-05-03T04:47:41.469Z,25.27
2017-05-03T04:48:21.986Z,25.37
2017-05-03T04:49:02.529Z,25.27
2017-05-03T04:49:43.057Z,25.27
2017-05-03T04:50:23.569Z,25.27
2017-05-03T04:51:04.077Z,25.29
2017-05-03T04:51:44.606Z,25.37
2017-05-03T04:52:25.115Z,25.29
2017-05-03T04:53:05.675Z,25.18
2017-05-03T04:53:46.154Z,25.29
2017-05-03T04:54:26.649Z,25.2
2017-05-03T04:55:07.165Z,25.38
2017-05-03T04:55:47.678Z,25.38
2017-05-03T04:56:28.134Z,25.38
2017-05-03T04:57:08.630Z,25.29
2017-05-03T04:57:49.156Z,25.38
2017-05-03T04:58:29.676Z,25.29
2017-05-03T04:59:10.185Z,25.29
2017-05-03T04:59:50.678Z,25.38
2017-05-03T05:00:31.190Z,25.38
2017-05-03T05:01:11.701Z,25.29
2017-05-03T05:01:52.228Z,25.29
2017-05-03T05:02:32.734Z,25.2
2017-05-03T05:03:13.264Z,25.38
2017-05-03T05:03:53.801Z,25.29
2017-05-03T05:04:34.316Z,25.29
2017-05-03T05:05:14.796Z,25.29
2017-05-03T05:05:55.289Z,25.38
2017-05-03T05:06:35.832Z,25.38
2017-05-03T05:07:16.382Z,25.29
2017-05-03T05:07:56.892Z,25.29
2017-05-03T05:08:37.422Z,25.29
2017-05-03T05:09:17.944Z,25.29
2017-05-03T05:09:58.467Z,25.29
2017-05-03T05:10:38.961Z,25.38
2017-05-03T05:11:19.479Z,25.29
2017-05-03T05:11:59.978Z,25.29
2017-05-03T05:12:40.522Z,25.2
2017-05-03T05:13:21.009Z,25.38
2017-05-03T05:14:01.578Z,25.38
2017-05-03T05:14:42.121Z,25.38
2017-05-03T05:15:22.613Z,25.29
2017-05-03T05:16:03.166Z,25.48
2017-05-03T05:16:43.714Z,25.29
2017-05-03T05:17:24.200Z,25.29
2017-05-03T05:18:04.717Z,25.29
2017-05-03T05:18:45.285Z,25.29
2017-05-03T05:19:25.801Z,25.2
2017-05-03T05:20:06.353Z,25.29
2017-05-03T05:20:46.866Z,25.29
2017-05-03T05:21:27.399Z,25.29
2017-05-03T05:22:07.921Z,25.29
2017-05-03T05:22:48.464Z,25.38
2017-05-03T05:23:28.992Z,25.29
2017-05-03T05:24:09.527Z,25.57
2017-05-03T05:24:50.050Z,25.38
2017-05-03T05:25:30.566Z,25.38
2017-05-03T05:26:11.065Z,25.2
2017-05-03T05:26:51.534Z,25.29
2017-05-03T05:27:32.066Z,25.48
2017-05-03T05:28:12.641Z,25.38
2017-05-03T05:28:53.165Z,25.57
2017-05-03T05:29:33.719Z,25.38
2017-05-03T05:30:14.198Z,25.2
2017-05-03T05:30:56.405Z,25.29
2017-05-03T05:31:36.911Z,25.38
2017-05-03T05:32:17.427Z,25.1
2017-05-03T05:32:57.949Z,25.29
2017-05-03T05:33:38.463Z,25.01
2017-05-03T05:34:18.988Z,24.91
2017-05-03T05:34:59.521Z,24.81
2017-05-03T05:35:40.091Z,24.91
2017-05-03T05:36:20.666Z,24.72
2017-05-03T05:37:01.152Z,24.62
2017-05-03T05:37:41.651Z,24.53
2017-05-03T05:38:22.186Z,24.53
2017-05-03T05:39:02.678Z,24.34
2017-05-03T05:39:43.185Z,24.53
2017-05-03T05:40:23.666Z,24.62
2017-05-03T05:41:04.169Z,24.53
2017-05-03T05:41:44.773Z,24.53
2017-05-03T05:42:25.231Z,24.62
2017-05-03T05:43:05.756Z,24.62
2017-05-03T05:43:46.248Z,24.62
2017-05-03T05:44:26.754Z,24.81
2017-05-03T05:45:07.228Z,24.72
2017-05-03T05:45:47.765Z,24.81
2017-05-03T05:46:28.305Z,24.91
2017-05-03T05:47:09.065Z,25.01
2017-05-03T05:47:49.741Z,25.2
2017-05-03T05:48:30.262Z,25.38
2017-05-03T05:49:10.811Z,25.38
2017-05-03T05:49:51.272Z,25.29
2017-05-03T05:50:31.789Z,25.2
2017-05-03T05:51:12.307Z,25.38
2017-05-03T05:51:52.799Z,25.38
2017-05-03T05:52:33.309Z,25.29
2017-05-03T05:53:13.839Z,25.2
2017-05-03T05:53:54.340Z,25.2
2017-05-03T05:54:34.813Z,25.38
2017-05-03T05:55:15.322Z,25.38
2017-05-03T05:55:55.819Z,25.29
2017-05-03T05:56:36.367Z,25.38
2017-05-03T05:57:16.917Z,25.67
2017-05-03T05:57:57.466Z,25.76
2017-05-03T05:58:37.987Z,25.67
2017-05-03T05:59:18.486Z,25.95
2017-05-03T05:59:58.999Z,25.86
2017-05-03T06:00:39.492Z,25.95
2017-05-03T06:01:20.026Z,25.76
2017-05-03T06:02:00.517Z,25.86
2017-05-03T06:02:41.039Z,25.86
2017-05-03T06:03:21.578Z,25.95
2017-05-03T06:04:02.092Z,26.05
2017-05-03T06:04:42.607Z,25.76
2017-05-03T06:05:23.128Z,26.05
2017-05-03T06:06:03.701Z,26.05
2017-05-03T06:06:44.235Z,25.95
2017-05-03T06:07:24.751Z,25.86
2017-05-03T06:08:05.272Z,25.76
2017-05-03T06:08:45.799Z,25.95
2017-05-03T06:09:26.324Z,26.06
2017-05-03T06:10:06.821Z,26.25
2017-05-03T06:10:47.342Z,25.96
2017-05-03T06:11:27.903Z,25.78
2017-05-03T06:12:08.430Z,26.14
2017-05-03T06:12:48.927Z,26.06
2017-05-03T06:13:29.458Z,26.16
2017-05-03T06:14:09.975Z,26.16
2017-05-03T06:14:50.485Z,26.25
2017-05-03T06:15:31.041Z,25.78
2017-05-03T06:16:11.544Z,25.78
2017-05-03T06:16:52.075Z,26.16
2017-05-03T06:17:32.562Z,25.78
2017-05-03T06:18:13.073Z,25.96
2017-05-03T06:18:53.587Z,25.87
2017-05-03T06:19:34.091Z,25.96
2017-05-03T06:20:14.615Z,26.06
2017-05-03T06:20:55.083Z,26.06
2017-05-03T06:21:35.652Z,25.96
2017-05-03T06:22:16.147Z,25.78
2017-05-03T06:22:56.653Z,25.78
2017-05-03T06:23:37.186Z,26.06
2017-05-03T06:24:17.718Z,25.96
2017-05-03T06:24:58.233Z,25.57
2017-05-03T06:25:38.782Z,25.59
2017-05-03T06:26:19.433Z,25.78
2017-05-03T06:26:59.964Z,25.96
2017-05-03T06:27:40.482Z,25.96
2017-05-03T06:28:21.009Z,25.96
2017-05-03T06:29:01.527Z,25.68
2017-05-03T06:29:42.055Z,26.06
2017-05-03T06:30:22.589Z,26.16
2017-05-03T06:31:03.106Z,25.87
2017-05-03T06:31:43.633Z,25.96
2017-05-03T06:32:24.136Z,26.25
2017-05-03T06:33:04.669Z,26.35
2017-05-03T06:33:45.187Z,26.25
2017-05-03T06:34:25.676Z,26.35
2017-05-03T06:35:06.216Z,26.35
2017-05-03T06:35:46.692Z,26.35
2017-05-03T06:36:28.345Z,26.25
2017-05-03T06:37:09.105Z,25.96
2017-05-03T06:37:50.062Z,25.87
2017-05-03T06:38:30.594Z,26.06
2017-05-03T06:39:11.129Z,26.06
2017-05-03T06:39:51.639Z,26.06
2017-05-03T06:40:32.189Z,25.96
2017-05-03T06:41:12.716Z,26.06
2017-05-03T06:41:53.240Z,25.68
2017-05-03T06:42:33.761Z,25.78
2017-05-03T06:43:14.302Z,25.96
2017-05-03T06:43:54.823Z,25.78
2017-05-03T06:44:35.331Z,25.96
2017-05-03T06:45:15.875Z,26.06
2017-05-03T06:45:56.396Z,25.68
2017-05-03T06:46:36.937Z,25.87
2017-05-03T06:47:17.463Z,25.87
2017-05-03T06:47:57.978Z,25.89
2017-05-03T06:48:38.507Z,25.96
2017-05-03T06:49:19.045Z,26.07
2017-05-03T06:49:59.556Z,26.07
2017-05-03T06:50:40.081Z,25.79
2017-05-03T06:51:20.607Z,26.17
2017-05-03T06:52:01.139Z,26.07
2017-05-03T06:52:41.642Z,25.89
2017-05-03T06:53:22.163Z,25.89
2017-05-03T06:54:02.676Z,26.17
2017-05-03T06:54:43.204Z,26.17
2017-05-03T06:55:23.753Z,25.89
2017-05-03T06:56:04.239Z,25.79
2017-05-03T06:56:44.747Z,26.17
2017-05-03T06:57:25.259Z,26.17
2017-05-03T06:58:05.810Z,26.07
2017-05-03T06:58:46.328Z,25.98
2017-05-03T06:59:26.871Z,25.98
2017-05-03T07:00:07.384Z,26.07
2017-05-03T07:00:47.910Z,25.98
2017-05-03T07:01:28.445Z,25.98
2017-05-03T07:02:08.958Z,25.98
2017-05-03T07:02:49.468Z,26.26
2017-05-03T07:03:29.990Z,26.17
2017-05-03T07:04:10.521Z,26.17
2017-05-03T07:04:51.053Z,26.07
2017-05-03T07:05:31.558Z,26.17
2017-05-03T07:06:12.092Z,26.26
2017-05-03T07:06:52.641Z,26.26
2017-05-03T07:07:33.156Z,26.07
2017-05-03T07:08:13.687Z,26.07
2017-05-03T07:08:54.207Z,26.17
2017-05-03T07:09:34.730Z,25.89
2017-05-03T07:10:15.247Z,25.89
2017-05-03T07:10:55.765Z,25.98
2017-05-03T07:11:36.286Z,26.17
2017-05-03T07:12:16.807Z,26.17
2017-05-03T07:12:57.340Z,25.79
2017-05-03T07:13:37.856Z,25.79
2017-05-03T07:14:18.398Z,25.79
2017-05-03T07:14:58.895Z,25.98
2017-05-03T07:15:39.425Z,25.89
2017-05-03T07:16:19.952Z,25.9
2017-05-03T07:17:00.475Z,25.79
2017-05-03T07:17:40.995Z,26.07
2017-05-03T07:18:21.514Z,25.98
2017-05-03T07:19:02.030Z,25.7
2017-05-03T07:19:42.551Z,25.79
2017-05-03T07:20:23.072Z,25.79
2017-05-03T07:21:03.611Z,25.6
2017-05-03T07:21:44.144Z,25.41
2017-05-03T07:22:24.659Z,25.41
2017-05-03T07:23:05.194Z,25.71
2017-05-03T07:23:45.725Z,25.6
2017-05-03T07:24:26.245Z,25.22
2017-05-03T07:25:06.746Z,25.31
2017-05-03T07:25:47.267Z,25.22
2017-05-03T07:26:27.810Z,25.03
2017-05-03T07:27:08.319Z,25.03
2017-05-03T07:27:48.847Z,24.93
2017-05-03T07:28:29.360Z,25.03
2017-05-03T07:29:09.866Z,24.84
2017-05-03T07:29:50.396Z,24.84
2017-05-03T07:30:30.914Z,24.65
2017-05-03T07:31:11.422Z,24.74
2017-05-03T07:31:51.960Z,24.55
2017-05-03T07:32:32.494Z,24.55
2017-05-03T07:33:13.000Z,24.55
2017-05-03T07:33:53.524Z,24.46
2017-05-03T07:34:34.055Z,24.55
2017-05-03T07:35:14.579Z,24.46
2017-05-03T07:35:55.098Z,24.46
2017-05-03T07:36:35.620Z,24.46
2017-05-03T07:37:16.127Z,24.37
2017-05-03T07:37:56.657Z,24.46
2017-05-03T07:38:37.179Z,24.37
2017-05-03T07:39:17.695Z,24.55
2017-05-03T07:39:58.229Z,24.55
2017-05-03T07:40:38.706Z,24.27
2017-05-03T07:41:19.208Z,24.17
2017-05-03T07:41:59.735Z,24.17
2017-05-03T07:42:40.269Z,24.46
2017-05-03T07:43:20.785Z,24.27
2017-05-03T07:44:01.325Z,24.08
2017-05-03T07:44:41.860Z,23.89
2017-05-03T07:45:22.394Z,23.6
2017-05-03T07:46:02.921Z,23.5
2017-05-03T07:46:43.450Z,23.5
2017-05-03T07:47:23.979Z,23.41
2017-05-03T07:48:04.503Z,23.42
2017-05-03T07:48:45.023Z,23.32
2017-05-03T07:49:25.551Z,23.42
2017-05-03T07:50:06.073Z,23.42
2017-05-03T07:50:46.577Z,23.42
2017-05-03T07:51:27.107Z,23.42
2017-05-03T07:52:07.630Z,23.23
2017-05-03T07:52:48.161Z,23.14
2017-05-03T07:53:28.704Z,23.42
2017-05-03T07:54:09.230Z,23.42
2017-05-03T07:54:49.759Z,23.42
2017-05-03T07:55:30.295Z,23.42
2017-05-03T07:56:10.788Z,23.33
2017-05-03T07:56:51.289Z,23.04
2017-05-03T07:57:31.821Z,23.23
2017-05-03T07:58:12.358Z,23.14
2017-05-03T07:58:52.872Z,23.33
2017-05-03T07:59:33.431Z,23.14
2017-05-03T08:00:13.935Z,23.14
2017-05-03T08:00:54.470Z,23.42
2017-05-03T08:01:35.005Z,23.23
2017-05-03T08:02:15.531Z,22.85
2017-05-03T08:02:56.063Z,23.14
2017-05-03T08:03:36.611Z,23.23
2017-05-03T08:04:17.144Z,23.23
2017-05-03T08:04:57.669Z,22.85
2017-05-03T08:05:38.200Z,22.85
2017-05-03T08:06:18.719Z,22.85
2017-05-03T08:06:59.324Z,22.66
2017-05-03T08:07:39.840Z,22.75
2017-05-03T08:08:20.380Z,22.47
2017-05-03T08:09:00.881Z,22.56
2017-05-03T08:09:41.395Z,22.47
2017-05-03T08:10:21.912Z,22.29
2017-05-03T08:11:02.440Z,22.19
2017-05-03T08:11:42.959Z,22.1
2017-05-03T08:12:23.486Z,22
2017-05-03T08:13:04.042Z,22
2017-05-03T08:13:44.541Z,22.1
2017-05-03T08:14:25.064Z,21.91
2017-05-03T08:15:05.591Z,21.91
2017-05-03T08:15:46.117Z,22
2017-05-03T08:16:26.646Z,21.72
2017-05-03T08:17:07.176Z,21.72
2017-05-03T08:17:47.685Z,21.53
2017-05-03T08:18:28.211Z,21.34
2017-05-03T08:19:08.728Z,21.15
2017-05-03T08:19:49.262Z,20.96
2017-05-03T08:20:29.763Z,20.86
2017-05-03T08:21:10.302Z,20.39
2017-05-03T08:21:50.832Z,20.4
2017-05-03T08:22:31.384Z,20.49
2017-05-03T08:23:11.931Z,19.92
2017-05-03T08:23:52.456Z,19.92
2017-05-03T08:24:32.989Z,20.11
2017-05-03T08:25:13.518Z,20.11
2017-05-03T08:25:54.037Z,19.44
2017-05-03T08:26:34.582Z,19.16
2017-05-03T08:27:15.128Z,18.87
2017-05-03T08:27:55.660Z,18.77
2017-05-03T08:28:36.180Z,18.48
2017-05-03T08:29:16.721Z,18.49
2017-05-03T08:29:57.302Z,18.29
2017-05-03T08:30:37.820Z,18.3
2017-05-03T08:31:18.328Z,18.38
2017-05-03T08:31:58.843Z,18.4
2017-05-03T08:32:39.389Z,18.48
2017-05-03T08:33:19.923Z,18.49
2017-05-03T08:34:00.445Z,18.68
2017-05-03T08:34:40.956Z,18.4
2017-05-03T08:35:21.488Z,18.4
2017-05-03T08:36:02.010Z,18.49
2017-05-03T08:36:42.516Z,18.3
2017-05-03T08:37:23.026Z,18.11
2017-05-03T08:38:03.560Z,17.92
2017-05-03T08:38:44.070Z,18.1
2017-05-03T08:39:24.596Z,18.01
2017-05-03T08:40:05.125Z,17.53
2017-05-03T08:40:45.644Z,17.43
2017-05-03T08:41:26.166Z,17.53
2017-05-03T08:42:06.694Z,17.62
2017-05-03T08:42:47.227Z,17.62
2017-05-03T08:43:27.756Z,17.43
2017-05-03T08:44:08.296Z,17.33